Time;durP1;ratioP1;P1;durP2;ratioP2;P2;SDS_P1;SDS_P2;PMS_P1;PMS_P2;Temp;Humidity;BMP_temperature;BMP_pressure;BME280_temperature;BME280_humidity;BME280_pressure;Samples;Min_cycle;Max_cycle;Signal;HPM_P1;HPM_P2
2021/08/23 00:01:59;;;;;;;15.02;9.75;;;;;;;19.27;74.38;102140.94;4983261;28;20046;-50
2021/08/23 00:04:25;;;;;;;14.48;10.43;;;;;;;18.97;75.23;102145.38;4988113;28;20025;-48
2021/08/23 00:06:51;;;;;;;15.73;10.75;;;;;;;18.96;75.31;102143.63;4980303;28;20463;-49
2021/08/23 00:09:19;;;;;;;18.77;10.88;;;;;;;18.88;75.92;102152.44;4982856;28;20060;-53
2021/08/23 00:11:47;;;;;;;14.90;10.30;;;;;;;19.14;74.72;102144.50;4983281;28;20088;-48
2021/08/23 00:14:12;;;;;;;18.08;11.90;;;;;;;19.22;74.67;102151.50;4988454;28;20088;-48
2021/08/23 00:16:37;;;;;;;17.70;11.85;;;;;;;18.90;75.20;102161.25;4986186;28;20370;-48
2021/08/23 00:19:03;;;;;;;18.33;12.00;;;;;;;19.00;75.09;102150.66;4978526;28;20438;-49
2021/08/23 00:21:28;;;;;;;21.33;12.10;;;;;;;18.99;74.58;102151.53;4986146;28;20034;-49
2021/08/23 00:24:05;;;;;;;18.95;12.60;;;;;;;19.04;74.72;102143.59;4985240;28;20574;-49
2021/08/23 00:26:31;;;;;;;19.45;12.30;;;;;;;19.11;74.70;102150.66;4981407;28;20045;-48
2021/08/23 00:28:57;;;;;;;19.95;12.00;;;;;;;19.24;74.14;102149.75;4986782;28;20120;-48
2021/08/23 00:31:22;;;;;;;21.63;12.48;;;;;;;18.85;75.19;102155.94;4982012;28;20497;-47
2021/08/23 00:33:47;;;;;;;16.15;11.18;;;;;;;19.11;74.40;102152.41;4986737;28;20142;-49
2021/08/23 00:36:13;;;;;;;20.67;12.05;;;;;;;18.89;75.23;102146.28;4982740;28;20188;-49
2021/08/23 00:38:38;;;;;;;24.58;12.25;;;;;;;19.04;74.49;102165.63;4986526;28;20022;-48
2021/08/23 00:41:03;;;;;;;18.67;12.27;;;;;;;18.99;74.56;102169.16;4982695;28;20080;-51
2021/08/23 00:43:30;;;;;;;20.02;12.13;;;;;;;18.91;74.84;102173.56;4983657;28;20029;-50
2021/08/23 00:45:55;;;;;;;20.27;12.18;;;;;;;18.95;74.66;102178.00;4986001;28;20533;-48
2021/08/23 00:48:21;;;;;;;19.13;12.27;;;;;;;18.92;74.89;102175.34;4982577;28;20061;-48
2021/08/23 00:50:46;;;;;;;18.67;12.15;;;;;;;19.04;74.39;102180.59;4982165;28;20481;-51
2021/08/23 00:53:12;;;;;;;18.02;11.98;;;;;;;18.97;74.56;102179.72;4985769;28;20049;-47
2021/08/23 00:55:37;;;;;;;19.25;12.27;;;;;;;19.08;74.02;102186.78;4983997;28;20109;-46
2021/08/23 00:58:03;;;;;;;20.35;11.75;;;;;;;18.99;74.31;102179.75;4979144;28;20482;-47
2021/08/23 01:00:29;;;;;;;18.48;11.32;;;;;;;19.01;74.23;102184.16;4981493;28;21426;-47
2021/08/23 01:03:00;;;;;;;19.30;12.40;;;;;;;18.91;74.48;102185.00;4982619;28;20041;-47
2021/08/23 01:05:27;;;;;;;18.40;11.35;;;;;;;18.82;74.87;102186.78;4981575;28;20033;-46
2021/08/23 01:08:03;;;;;;;18.58;11.25;;;;;;;18.90;74.64;102188.56;4984345;28;20073;-47
2021/08/23 01:10:37;;;;;;;20.60;11.50;;;;;;;18.92;74.46;102197.34;4986142;28;20422;-46
2021/08/23 01:13:05;;;;;;;;;;;;;;;18.88;74.35;102200.88;4979742;28;20042;-46
2021/08/23 01:15:31;;;;;;;19.33;12.02;;;;;;;18.68;75.10;102207.91;4981660;28;19921;-47
2021/08/23 01:17:57;;;;;;;17.50;11.68;;;;;;;18.92;74.34;102205.28;4981563;28;20067;-48
2021/08/23 01:20:22;;;;;;;17.27;11.35;;;;;;;19.01;74.09;102207.06;4979870;28;20040;-51
2021/08/23 01:22:49;;;;;;;19.88;12.27;;;;;;;18.61;74.86;102216.69;4979730;28;20658;-48
2021/08/23 01:25:19;;;;;;;18.88;11.73;;;;;;;18.59;74.91;102221.13;4983825;28;20034;-46
2021/08/23 01:28:07;;;;;;;20.92;11.63;;;;;;;18.65;74.83;102221.13;4987466;28;20127;-47
2021/08/23 01:31:06;;;;;;;19.45;12.18;;;;;;;18.45;75.91;102223.69;4983798;28;20491;-47
2021/08/23 01:33:32;;;;;;;19.48;12.75;;;;;;;18.22;76.38;102231.56;4997357;28;20048;-46
2021/08/23 01:35:59;;;;;;;22.05;12.27;;;;;;;18.53;75.01;102226.34;4985040;28;20034;-50
2021/08/23 01:38:24;;;;;;;21.10;12.23;;;;;;;18.53;75.76;102227.25;4982754;28;20058;-47
2021/08/23 01:41:04;;;;;;;18.23;12.10;;;;;;;18.37;75.71;102233.34;4979916;28;20778;-50
2021/08/23 01:43:30;;;;;;;21.00;12.10;;;;;;;18.68;74.65;102241.38;4985241;28;20025;-48
2021/08/23 01:45:55;;;;;;;20.23;11.88;;;;;;;18.81;74.20;102244.03;4986519;28;20382;-50
2021/08/23 01:48:21;;;;;;;18.00;11.73;;;;;;;18.72;74.17;102240.50;4980647;28;20152;-48
2021/08/23 01:50:47;;;;;;;16.25;10.90;;;;;;;18.78;73.86;102244.06;4982908;28;20492;-47
2021/08/23 01:53:12;;;;;;;14.95;10.77;;;;;;;18.70;73.56;102237.88;4983314;28;20065;-48
2021/08/23 01:55:38;;;;;;;17.27;10.65;;;;;;;18.61;73.81;102246.63;4984148;28;20117;-50
2021/08/23 01:58:04;;;;;;;18.58;10.32;;;;;;;18.56;73.86;102243.13;4979865;28;20079;-48
2021/08/23 02:00:30;;;;;;;16.98;10.85;;;;;;;18.78;73.29;102249.34;4984291;28;20820;-51
2021/08/23 02:02:55;;;;;;;16.52;11.00;;;;;;;18.64;73.49;102243.13;4979693;28;20147;-48
2021/08/23 02:05:20;;;;;;;15.88;10.27;;;;;;;18.71;73.23;102249.31;4980587;28;20600;-52
2021/08/23 02:07:46;;;;;;;16.85;10.77;;;;;;;18.63;73.20;102255.47;4983689;28;20117;-47
2021/08/23 02:10:11;;;;;;;17.88;10.15;;;;;;;18.75;73.10;102251.94;4983015;28;20025;-51
2021/08/23 02:12:36;;;;;;;16.45;10.43;;;;;;;18.68;72.93;102251.94;4985169;28;20056;-50
2021/08/23 02:15:02;;;;;;;15.25;9.82;;;;;;;18.68;72.34;102257.22;4984714;28;20480;-49
2021/08/23 02:17:27;;;;;;;14.43;9.75;;;;;;;18.73;72.73;102263.38;4982092;28;20589;-50
2021/08/23 02:19:53;;;;;;;15.98;10.52;;;;;;;18.77;72.42;102259.88;4980998;28;20476;-48
2021/08/23 02:22:18;;;;;;;13.82;9.32;;;;;;;18.78;71.93;102266.94;4984799;28;20480;-50
2021/08/23 02:24:44;;;;;;;16.63;9.93;;;;;;;18.90;71.84;102269.59;4989830;28;20104;-53
2021/08/23 02:27:09;;;;;;;16.13;9.57;;;;;;;18.71;72.19;102273.09;4989653;28;20017;-48
2021/08/23 02:29:34;;;;;;;16.63;9.18;;;;;;;18.67;72.34;102274.81;4991292;28;20053;-47
2021/08/23 02:32:01;;;;;;;13.77;9.20;;;;;;;18.77;72.02;102279.28;4985876;28;20454;-45
2021/08/23 02:34:26;;;;;;;14.90;9.25;;;;;;;18.68;72.31;102284.53;4987684;28;20176;-46
2021/08/23 02:36:52;;;;;;;15.10;9.10;;;;;;;18.66;72.18;102281.00;4988461;28;20033;-48
2021/08/23 02:39:17;;;;;;;12.73;8.63;;;;;;;18.54;72.53;102292.34;4985908;28;20079;-48
2021/08/23 02:41:43;;;;;;;12.57;8.18;;;;;;;18.59;71.92;102289.78;4986411;28;20413;-47
2021/08/23 02:44:08;;;;;;;12.95;8.23;;;;;;;18.92;71.40;102294.25;4986987;28;20105;-49
2021/08/23 02:46:33;;;;;;;14.52;8.10;;;;;;;18.71;71.37;102295.09;4987819;28;20109;-47
2021/08/23 02:48:59;;;;;;;13.55;8.07;;;;;;;18.63;71.74;102300.38;4987186;28;21888;-49
2021/08/23 02:51:24;;;;;;;10.98;7.30;;;;;;;18.91;71.15;102297.75;4982838;28;20037;-51
2021/08/23 02:53:50;;;;;;;14.32;7.68;;;;;;;18.85;71.10;102289.81;4988474;28;20038;-51
2021/08/23 02:56:15;;;;;;;10.10;7.00;;;;;;;18.77;71.29;102295.13;4984027;28;20026;-46
2021/08/23 02:58:40;;;;;;;11.80;7.35;;;;;;;18.90;71.00;102309.25;4989608;28;20080;-48
2021/08/23 03:01:06;;;;;;;12.70;6.65;;;;;;;18.79;70.94;102303.91;4985840;28;20030;-47
2021/08/23 03:03:34;;;;;;;11.98;6.78;;;;;;;18.95;70.70;102313.66;4989951;28;21295;-48
2021/08/23 03:05:59;;;;;;;12.02;7.07;;;;;;;19.03;70.17;102314.53;4983976;28;20564;-49
2021/08/23 03:08:24;;;;;;;11.55;6.75;;;;;;;19.06;70.33;102316.31;4990300;28;20219;-52
2021/08/23 03:10:54;;;;;;;9.68;6.63;;;;;;;18.91;70.70;102316.25;4982145;28;20022;-49
2021/08/23 03:13:19;;;;;;;11.20;6.30;;;;;;;18.90;70.80;102325.09;4982947;28;20046;-49
2021/08/23 03:15:45;;;;;;;11.88;6.20;;;;;;;18.91;70.65;102325.06;4988931;28;20029;-50
2021/08/23 03:18:10;;;;;;;14.30;6.40;;;;;;;19.01;70.41;102328.63;4984041;28;20421;-48
2021/08/23 03:20:35;;;;;;;9.15;5.68;;;;;;;18.98;70.29;102326.84;4990881;28;20040;-48
2021/08/23 03:23:01;;;;;;;10.68;5.57;;;;;;;18.68;71.01;102336.47;4983911;28;20029;-46
2021/08/23 03:25:27;;;;;;;10.25;5.90;;;;;;;18.96;70.56;102335.69;4988291;28;20037;-49
2021/08/23 03:27:52;;;;;;;9.10;5.25;;;;;;;18.92;70.45;102336.53;4983498;28;20367;-46
2021/08/23 03:30:17;;;;;;;10.40;4.80;;;;;;;18.96;70.28;102333.03;4985326;28;20061;-49
2021/08/23 03:32:42;;;;;;;9.88;4.47;;;;;;;18.93;70.21;102331.25;4987262;28;20076;-47
2021/08/23 03:35:09;;;;;;;9.18;4.80;;;;;;;18.95;70.43;102340.09;4983962;28;20541;-46
2021/08/23 03:37:34;;;;;;;10.25;4.60;;;;;;;19.01;70.31;102340.09;4987177;28;20030;-50
2021/08/23 03:40:02;;;;;;;9.05;4.60;;;;;;;18.85;70.66;102342.69;4985769;28;20912;-52
2021/08/23 03:42:27;;;;;;;9.43;4.50;;;;;;;19.01;70.13;102341.84;4986681;28;20030;-50
2021/08/23 03:44:53;;;;;;;10.82;5.15;;;;;;;18.95;70.25;102341.84;4981735;28;20026;-46
2021/08/23 03:47:18;;;;;;;12.85;4.63;;;;;;;18.87;70.53;102354.16;4981783;28;20127;-51
2021/08/23 03:49:44;;;;;;;10.25;4.45;;;;;;;18.80;70.63;102352.34;4987956;28;20520;-50
2021/08/23 03:52:10;;;;;;;10.27;4.38;;;;;;;18.83;70.37;102352.38;4982133;28;21128;-48
2021/08/23 03:54:35;;;;;;;8.50;3.90;;;;;;;18.91;70.15;102355.91;4985662;28;20766;-47
2021/08/23 03:57:01;;;;;;;12.48;4.40;;;;;;;18.94;70.10;102356.81;4984413;28;20027;-46
2021/08/23 03:59:26;;;;;;;8.80;4.10;;;;;;;19.09;69.66;102355.09;4985298;28;20585;-49
2021/08/23 04:01:52;;;;;;;8.75;3.90;;;;;;;18.92;69.77;102355.03;4985000;28;20254;-48
2021/08/23 04:04:17;;;;;;;11.00;3.90;;;;;;;18.98;69.59;102368.25;4981563;28;20560;-47
2021/08/23 04:06:46;;;;;;;10.05;4.00;;;;;;;18.92;69.61;102360.31;4990521;28;20608;-48
2021/08/23 04:09:14;;;;;;;8.05;4.00;;;;;;;18.99;69.39;102363.00;4984262;28;20030;-47
2021/08/23 04:11:40;;;;;;;7.13;4.00;;;;;;;18.67;69.98;102372.56;4982832;28;20053;-46
2021/08/23 04:14:06;;;;;;;8.15;3.80;;;;;;;19.03;69.03;102371.78;4986520;28;20125;-52
2021/08/23 04:16:31;;;;;;;8.75;3.90;;;;;;;19.11;68.86;102377.09;4984983;28;20022;-51
2021/08/23 04:18:57;;;;;;;10.75;3.90;;;;;;;19.12;68.64;102382.41;4983559;28;20065;-48
2021/08/23 04:21:22;;;;;;;8.73;3.90;;;;;;;19.14;68.74;102382.41;4987082;28;20036;-49
2021/08/23 04:23:47;;;;;;;8.32;3.70;;;;;;;19.14;68.51;102385.06;4983205;28;20152;-46
2021/08/23 04:26:13;;;;;;;10.48;3.90;;;;;;;18.98;69.11;102387.66;4983724;28;20034;-48
2021/08/23 04:28:38;;;;;;;8.20;3.90;;;;;;;18.75;69.24;102389.34;4984764;28;20033;-51
2021/08/23 04:31:04;;;;;;;9.20;3.63;;;;;;;18.94;69.01;102391.16;4984676;28;20065;-48
2021/08/23 04:33:29;;;;;;;8.23;3.55;;;;;;;19.03;68.69;102393.81;4988577;28;20140;-48
2021/08/23 04:35:55;;;;;;;9.65;3.55;;;;;;;19.14;68.26;102406.22;4983654;28;20080;-47
2021/08/23 04:38:20;;;;;;;13.68;3.92;;;;;;;19.12;68.02;102402.66;4985963;28;20064;-53
2021/08/23 04:40:46;;;;;;;10.15;3.70;;;;;;;19.01;68.45;102405.28;4984633;28;20125;-47
2021/08/23 04:43:11;;;;;;;7.05;3.38;;;;;;;18.87;68.46;102409.63;4982967;28;20101;-47
2021/08/23 04:45:36;;;;;;;9.38;3.70;;;;;;;18.85;68.58;102420.19;4983265;28;20497;-51
2021/08/23 04:48:02;;;;;;;10.48;3.88;;;;;;;18.89;68.61;102422.00;4986562;28;20517;-50
2021/08/23 04:50:27;;;;;;;7.80;3.42;;;;;;;18.86;68.82;102421.09;4984973;28;20405;-46
2021/08/23 04:52:52;;;;;;;9.75;3.70;;;;;;;18.84;68.91;102417.56;4984650;28;20113;-49
2021/08/23 04:55:18;;;;;;;10.13;3.75;;;;;;;19.05;68.50;102428.19;4985191;28;20121;-48
2021/08/23 04:57:43;;;;;;;12.23;3.83;;;;;;;18.85;69.20;102424.59;4984320;28;20034;-46
2021/08/23 05:00:10;;;;;;;8.25;3.15;;;;;;;18.94;68.80;102430.81;4984159;28;20348;-48
2021/08/23 05:02:35;;;;;;;8.55;3.40;;;;;;;18.87;69.28;102434.31;4983347;28;20061;-49
2021/08/23 05:05:01;;;;;;;10.38;3.67;;;;;;;18.80;69.08;102437.78;4985662;28;20154;-50
2021/08/23 05:07:27;;;;;;;6.95;3.40;;;;;;;18.99;68.79;102442.28;4983238;28;20032;-45
2021/08/23 05:09:52;;;;;;;7.75;3.40;;;;;;;19.07;68.63;102457.28;4982514;28;20037;-48
2021/08/23 05:12:17;;;;;;;12.20;3.70;;;;;;;18.73;69.37;102454.50;4984600;28;20219;-50
2021/08/23 05:14:43;;;;;;;9.13;3.70;;;;;;;18.82;69.08;102446.63;4986191;28;20153;-49
2021/08/23 05:17:08;;;;;;;7.80;3.25;;;;;;;18.77;69.21;102464.22;4982528;28;20136;-48
2021/08/23 05:19:33;;;;;;;8.90;3.17;;;;;;;19.02;68.99;102455.53;4987304;28;20032;-50
2021/08/23 05:21:59;;;;;;;9.88;3.65;;;;;;;18.95;68.95;102463.41;4984539;28;20549;-51
2021/08/23 05:24:24;;;;;;;12.80;3.33;;;;;;;18.91;68.65;102459.84;4981604;28;20037;-49
2021/08/23 05:26:50;;;;;;;7.05;3.35;;;;;;;18.94;68.89;102470.47;4987126;28;20030;-49
2021/08/23 05:29:15;;;;;;;6.30;3.20;;;;;;;19.08;68.54;102465.22;4980150;28;20208;-49
2021/08/23 05:31:40;;;;;;;8.27;3.47;;;;;;;19.16;68.69;102467.88;4985843;28;20030;-52
2021/08/23 05:34:06;;;;;;;6.93;3.67;;;;;;;18.99;69.05;102467.81;4981527;28;20072;-49
2021/08/23 05:36:31;;;;;;;8.77;3.55;;;;;;;18.96;69.37;102470.47;4986635;28;20087;-49
2021/08/23 05:38:57;;;;;;;6.78;2.97;;;;;;;19.23;69.38;102474.97;4983257;28;20053;-48
2021/08/23 05:41:22;;;;;;;10.10;3.30;;;;;;;19.21;69.07;102484.66;4982831;28;20054;-51
2021/08/23 05:43:47;;;;;;;8.07;3.35;;;;;;;19.21;68.83;102482.88;4984354;28;20026;-51
2021/08/23 05:46:15;;;;;;;7.15;3.35;;;;;;;19.28;69.09;102484.66;4981053;28;20395;-49
2021/08/23 05:48:41;;;;;;;9.90;3.50;;;;;;;19.18;69.37;102485.53;4984428;28;20037;-49
2021/08/23 05:51:09;;;;;;;7.22;3.50;;;;;;;19.26;69.42;102493.50;4979496;28;20142;-50
2021/08/23 05:53:35;;;;;;;8.75;3.50;;;;;;;19.31;69.33;102497.03;4984234;28;20029;-48
2021/08/23 05:56:00;;;;;;;10.55;3.65;;;;;;;19.17;69.98;102493.44;4978795;28;20034;-50
2021/08/23 05:58:25;;;;;;;17.25;3.83;;;;;;;19.38;69.51;102502.34;4983365;28;20066;-49
2021/08/23 06:00:51;;;;;;;9.15;3.80;;;;;;;19.29;70.15;102502.31;4985467;28;20196;-49
2021/08/23 06:03:16;;;;;;;8.68;3.40;;;;;;;19.46;69.53;102506.81;4984719;28;20133;-48
2021/08/23 06:05:42;;;;;;;9.40;3.72;;;;;;;19.40;69.88;102511.16;4990305;28;20545;-47
2021/08/23 06:08:07;;;;;;;9.10;3.72;;;;;;;19.53;69.81;102509.47;4981883;28;20562;-47
2021/08/23 06:10:33;;;;;;;8.55;3.60;;;;;;;19.67;69.40;102506.84;4985305;28;20360;-48
2021/08/23 06:12:58;;;;;;;6.57;3.72;;;;;;;19.55;69.80;102506.81;4985201;28;20037;-49
2021/08/23 06:15:23;;;;;;;11.57;3.80;;;;;;;19.55;69.98;102506.81;4985454;28;20028;-49
2021/08/23 06:17:49;;;;;;;8.35;3.60;;;;;;;19.75;69.83;102507.75;4987430;28;20096;-47
2021/08/23 06:20:14;;;;;;;8.32;3.83;;;;;;;19.59;69.68;102509.47;4983118;28;20076;-47
2021/08/23 06:22:40;;;;;;;7.85;3.60;;;;;;;19.63;69.92;102508.63;4982750;28;20033;-49
2021/08/23 06:25:06;;;;;;;6.68;3.15;;;;;;;19.87;69.48;102512.19;4985715;28;20028;-47
2021/08/23 06:27:31;;;;;;;9.45;3.70;;;;;;;19.86;69.67;102513.94;4985044;28;20512;-47
2021/08/23 06:29:57;;;;;;;8.88;3.63;;;;;;;19.86;69.38;102516.59;4984158;28;20026;-47
2021/08/23 06:32:22;;;;;;;8.40;3.90;;;;;;;19.75;69.63;102508.63;4986725;28;20478;-48
2021/08/23 06:34:48;;;;;;;8.82;4.03;;;;;;;19.95;69.08;102513.03;4984232;28;20027;-49
2021/08/23 06:37:13;;;;;;;10.18;3.83;;;;;;;19.97;69.17;102513.94;4986582;28;20187;-48
2021/08/23 06:39:38;;;;;;;11.10;3.55;;;;;;;19.91;69.34;102512.19;4987224;28;20022;-48
2021/08/23 06:42:04;;;;;;;10.60;3.60;;;;;;;19.65;69.97;102514.78;4983773;28;20390;-48
2021/08/23 06:44:29;;;;;;;12.05;3.85;;;;;;;19.75;70.02;102521.88;4989428;28;20072;-47
2021/08/23 06:46:54;;;;;;;10.45;3.92;;;;;;;19.88;69.68;102521.88;4982983;28;20486;-47
2021/08/23 06:49:20;;;;;;;9.43;3.92;;;;;;;20.06;69.40;102527.19;4989249;28;20246;-47
2021/08/23 06:51:46;;;;;;;8.70;3.72;;;;;;;19.85;69.53;102523.63;4988628;28;20378;-46
2021/08/23 06:54:11;;;;;;;9.10;3.63;;;;;;;20.02;69.40;102520.13;4986985;28;20028;-49
2021/08/23 06:56:36;;;;;;;9.00;3.58;;;;;;;19.79;69.66;102526.28;4986059;28;20051;-48
2021/08/23 06:59:02;;;;;;;14.38;3.85;;;;;;;19.88;69.75;102522.78;4983829;28;20049;-47
2021/08/23 07:01:27;;;;;;;8.02;3.55;;;;;;;20.20;68.69;102531.59;4987053;28;20597;-48
2021/08/23 07:03:53;;;;;;;6.40;3.17;;;;;;;20.05;68.81;102531.59;4984645;28;20030;-47
2021/08/23 07:06:19;;;;;;;8.43;3.42;;;;;;;20.22;68.62;102539.56;4983832;28;21054;-47
2021/08/23 07:08:45;;;;;;;13.05;3.90;;;;;;;20.08;69.07;102544.84;4987858;28;20065;-47
2021/08/23 07:11:11;;;;;;;10.13;3.60;;;;;;;20.47;68.04;102545.75;4986627;28;20096;-47
2021/08/23 07:13:37;;;;;;;9.20;3.35;;;;;;;20.45;67.80;102551.03;4987711;28;20893;-47
2021/08/23 07:16:03;;;;;;;8.50;3.60;;;;;;;20.66;67.84;102550.16;4987579;28;20133;-47
2021/08/23 07:18:30;;;;;;;12.32;3.33;;;;;;;20.70;67.23;102551.00;4991824;28;20404;-51
2021/08/23 07:20:55;;;;;;;10.43;3.28;;;;;;;20.87;66.44;102560.69;4979890;28;20041;-47
2021/08/23 07:23:20;;;;;;;9.05;3.05;;;;;;;20.29;67.22;102559.84;4983714;28;20436;-49
2021/08/23 07:25:46;;;;;;;8.23;3.10;;;;;;;20.49;66.38;102565.19;4984694;28;20050;-47
2021/08/23 07:28:13;;;;;;;8.65;3.20;;;;;;;20.97;65.90;102562.44;4985425;28;20660;-47
2021/08/23 07:30:39;;;;;;;8.70;3.10;;;;;;;20.91;65.23;102567.78;4998275;28;20038;-52
2021/08/23 07:33:05;;;;;;;5.68;2.85;;;;;;;21.37;64.94;102565.88;4987758;28;20308;-48
2021/08/23 07:35:30;;;;;;;9.40;3.15;;;;;;;21.35;63.49;102564.09;4985917;28;20336;-52
2021/08/23 07:37:55;;;;;;;10.23;3.33;;;;;;;21.33;63.43;102555.28;4988781;28;20500;-50
2021/08/23 07:40:21;;;;;;;5.85;2.53;;;;;;;21.69;61.65;102559.50;4983732;28;20099;-47
2021/08/23 07:42:46;;;;;;;7.85;3.00;;;;;;;21.42;61.29;102555.22;4986481;28;20041;-46
2021/08/23 07:45:13;;;;;;;8.82;2.90;;;;;;;21.67;61.20;102559.50;4986897;28;20021;-46
2021/08/23 07:47:41;;;;;;;5.63;2.45;;;;;;;21.97;59.85;102561.13;4999394;28;20022;-46
2021/08/23 07:50:07;;;;;;;11.60;2.83;;;;;;;22.19;58.97;102557.44;4985983;28;20482;-46
2021/08/23 07:52:33;;;;;;;9.70;2.85;;;;;;;22.17;59.32;102560.97;4986515;28;20025;-48
2021/08/23 07:54:58;;;;;;;7.82;2.58;;;;;;;22.50;58.40;102566.03;4988136;28;20552;-47
2021/08/23 07:57:23;;;;;;;6.70;2.72;;;;;;;22.44;57.22;102563.41;4983478;28;20328;-48
2021/08/23 07:59:49;;;;;;;6.35;2.90;;;;;;;22.95;57.45;102566.47;4970336;28;20044;-47
2021/08/23 08:02:14;;;;;;;7.25;2.63;;;;;;;23.01;56.52;102564.63;4987888;28;20720;-51
2021/08/23 08:04:39;;;;;;;4.78;2.42;;;;;;;23.67;55.87;102561.13;4979328;28;20039;-49
2021/08/23 08:07:05;;;;;;;7.00;2.55;;;;;;;23.23;54.40;102561.72;4983535;28;20070;-47
2021/08/23 08:09:30;;;;;;;5.07;2.55;;;;;;;23.25;56.01;102571.41;4984436;28;20029;-51
2021/08/23 08:11:56;;;;;;;7.93;2.55;;;;;;;23.28;56.49;102570.53;4981704;28;20109;-51
2021/08/23 08:14:22;;;;;;;11.63;2.97;;;;;;;21.94;58.14;102571.75;4976583;28;20037;-47
2021/08/23 08:16:48;;;;;;;5.13;2.60;;;;;;;21.52;58.27;102572.88;4983262;28;20029;-47
2021/08/23 08:19:14;;;;;;;5.80;2.90;;;;;;;21.53;58.69;102573.75;4987313;28;20026;-50
2021/08/23 08:21:39;;;;;;;6.63;2.83;;;;;;;21.58;58.58;102577.28;4980734;28;20413;-48
2021/08/23 08:24:04;;;;;;;6.35;2.78;;;;;;;21.01;59.72;102576.56;4988058;28;20026;-49
2021/08/23 08:26:30;;;;;;;5.78;2.55;;;;;;;21.63;58.96;102572.81;4985974;28;20038;-47
2021/08/23 08:28:55;;;;;;;7.45;2.50;;;;;;;22.11;57.68;102572.53;4986057;28;20030;-47
2021/08/23 08:31:20;;;;;;;6.97;2.55;;;;;;;22.01;56.56;102585.91;4980234;28;20572;-49
2021/08/23 08:33:46;;;;;;;8.88;2.85;;;;;;;22.33;56.67;102585.63;4982025;28;20480;-46
2021/08/23 08:36:13;;;;;;;7.20;2.75;;;;;;;22.18;57.06;102584.88;4985527;28;20018;-50
2021/08/23 08:38:39;;;;;;;10.48;2.60;;;;;;;21.81;56.09;102591.28;4981323;28;20030;-49
2021/08/23 08:41:04;;;;;;;4.78;2.55;;;;;;;21.69;56.83;102594.03;4980665;28;20034;-48
2021/08/23 08:43:30;;;;;;;7.78;2.90;;;;;;;21.51;57.09;102594.13;4986922;28;20034;-49
2021/08/23 08:45:56;;;;;;;6.72;2.80;;;;;;;21.87;56.57;102596.56;4981425;28;20497;-46
2021/08/23 08:48:21;;;;;;;6.88;2.58;;;;;;;22.13;56.89;102602.63;4984809;28;20080;-48
2021/08/23 08:50:49;;;;;;;6.80;2.70;;;;;;;22.39;56.81;102609.50;4982586;28;20372;-51
2021/08/23 08:53:14;;;;;;;6.78;2.63;;;;;;;22.63;55.04;102601.31;4987656;28;20034;-48
2021/08/23 08:55:40;;;;;;;4.80;2.13;;;;;;;22.61;55.71;102606.66;4983205;28;20074;-49
2021/08/23 08:58:06;;;;;;;7.22;2.60;;;;;;;22.45;55.15;102607.69;4980141;28;20022;-47
2021/08/23 09:00:33;;;;;;;4.50;2.28;;;;;;;22.95;55.04;102617.00;4983974;28;20026;-50
2021/08/23 09:03:00;;;;;;;6.55;2.40;;;;;;;23.02;53.56;102614.25;4986374;28;20026;-48
2021/08/23 09:05:34;;;;;;;4.50;2.42;;;;;;;22.99;52.73;102613.44;4988269;28;20025;-52
2021/08/23 09:08:01;;;;;;;9.07;2.80;;;;;;;22.69;54.15;102611.03;4982549;28;20041;-49
2021/08/23 09:10:27;;;;;;;6.15;2.20;;;;;;;23.43;53.43;102604.91;4981544;28;20034;-49
2021/08/23 09:13:04;;;;;;;5.43;2.40;;;;;;;23.52;51.75;102604.84;4981938;28;20095;-50
2021/08/23 09:15:30;;;;;;;4.95;2.35;;;;;;;23.55;51.99;102611.88;4982794;28;20087;-47
2021/08/23 09:18:06;;;;;;;4.32;2.63;;;;;;;23.40;53.13;102612.94;4987694;28;20033;-49
2021/08/23 09:20:34;;;;;;;8.48;2.50;;;;;;;22.93;52.35;102619.66;4987219;28;20048;-48
2021/08/23 09:23:11;;;;;;;4.85;2.25;;;;;;;23.13;52.67;102605.28;4988166;28;20103;-50
2021/08/23 09:25:36;;;;;;;6.55;2.30;;;;;;;22.88;53.36;102613.50;4979981;28;20053;-50
2021/08/23 09:28:03;;;;;;;4.57;2.10;;;;;;;22.50;52.57;102610.31;4975803;28;20116;-50
2021/08/23 09:30:29;;;;;;;4.80;2.20;;;;;;;22.54;53.17;102617.38;4983994;28;20061;-48
2021/08/23 09:32:57;;;;;;;4.97;2.08;;;;;;;22.18;53.17;102622.06;4983361;28;20430;-47
2021/08/23 09:35:31;;;;;;;7.43;2.28;;;;;;;22.73;52.54;102613.69;4979964;28;20121;-47
2021/08/23 09:37:58;;;;;;;;;;;;;;;23.25;51.94;102623.75;4987143;28;20033;-47
2021/08/23 09:40:26;;;;;;;5.22;2.20;;;;;;;23.26;51.04;102620.22;4980500;28;19972;-49
2021/08/23 09:43:02;;;;;;;4.63;2.20;;;;;;;22.97;50.75;102626.75;4987176;28;20054;-48
2021/08/23 09:45:27;;;;;;;;;;;;;;;22.65;51.37;102607.50;4981412;28;20034;-49
2021/08/23 09:48:02;;;;;;;5.30;1.92;;;;;;;22.91;49.37;102615.28;4986138;28;19931;-53
2021/08/23 09:50:41;;;;;;;4.18;2.00;;;;;;;22.64;49.03;102619.91;4981413;28;20134;-50
2021/08/23 09:53:08;;;;;;;5.55;2.08;;;;;;;23.15;48.25;102616.78;4984331;28;20049;-48
2021/08/23 09:55:36;;;;;;;5.88;1.92;;;;;;;22.96;48.07;102609.00;4986650;28;20038;-49
2021/08/23 09:58:02;;;;;;;3.38;1.90;;;;;;;22.81;50.15;102614.47;4981020;28;20121;-49
2021/08/23 10:00:27;;;;;;;5.38;2.30;;;;;;;22.61;51.40;102614.66;4980605;28;20071;-48
2021/08/23 10:02:53;;;;;;;6.38;2.03;;;;;;;23.49;51.09;102623.50;4979997;28;20038;-49
2021/08/23 10:05:19;;;;;;;8.13;2.08;;;;;;;22.80;49.77;102620.72;4984249;28;20030;-49
2021/08/23 10:07:45;;;;;;;6.70;1.95;;;;;;;22.95;48.67;102622.31;4998413;28;20022;-52
2021/08/23 10:10:11;;;;;;;7.40;2.10;;;;;;;22.80;48.44;102614.50;4976931;28;20041;-49
2021/08/23 10:12:37;;;;;;;4.57;2.03;;;;;;;23.02;49.53;102619.59;4982637;28;20061;-52
2021/08/23 10:15:03;;;;;;;4.03;1.90;;;;;;;23.08;49.13;102610.66;4982173;28;20030;-49
2021/08/23 10:17:35;;;;;;;3.50;2.00;;;;;;;23.23;49.43;102614.94;4983422;28;20376;-47
2021/08/23 10:20:05;;;;;;;3.92;1.98;;;;;;;23.49;48.54;102617.28;4984723;28;20026;-48
2021/08/23 10:22:32;;;;;;;5.97;2.20;;;;;;;22.92;48.26;102620.59;4984626;28;20041;-50
2021/08/23 10:24:57;;;;;;;8.63;2.17;;;;;;;23.12;48.30;102623.00;4984769;28;20483;-47
2021/08/23 10:27:24;;;;;;;4.93;1.80;;;;;;;23.63;50.83;102620.66;4979074;28;20513;-49
2021/08/23 10:29:50;;;;;;;3.30;1.80;;;;;;;23.13;48.49;102623.91;4982735;28;20061;-48
2021/08/23 10:32:15;;;;;;;2.47;1.70;;;;;;;23.85;48.68;102615.03;4981526;28;20549;-47
2021/08/23 10:34:42;;;;;;;5.32;1.90;;;;;;;23.64;47.16;102625.97;4988725;28;20430;-48
2021/08/23 10:37:20;;;;;;;5.93;1.70;;;;;;;23.51;45.94;102615.50;4985517;28;20022;-50
2021/08/23 10:39:57;;;;;;;4.03;1.80;;;;;;;22.95;46.70;102631.19;4983398;28;20401;-51
2021/08/23 10:42:22;;;;;;;4.60;1.70;;;;;;;23.00;47.25;102624.03;4967087;28;20065;-48
2021/08/23 10:44:48;;;;;;;3.67;1.75;;;;;;;23.39;48.06;102620.06;4989498;28;20062;-49
2021/08/23 10:47:16;;;;;;;5.43;1.80;;;;;;;23.57;47.89;102626.06;4985778;28;20028;-49
2021/08/23 10:49:44;;;;;;;3.47;1.80;;;;;;;23.28;46.72;102619.31;4984783;28;20120;-49
2021/08/23 10:52:10;;;;;;;4.68;2.05;;;;;;;23.08;48.45;102618.63;4985651;28;21038;-49
2021/08/23 10:54:40;;;;;;;6.22;1.80;;;;;;;23.11;49.14;102617.75;4987865;28;20053;-50
2021/08/23 10:57:08;;;;;;;5.38;1.70;;;;;;;23.79;49.14;102624.88;4991467;28;20065;-51
2021/08/23 10:59:54;;;;;;;5.47;1.90;;;;;;;23.68;46.65;102614.38;4985289;28;20468;-48
2021/08/23 11:02:37;;;;;;;5.53;1.80;;;;;;;23.79;47.05;102611.56;4984528;28;20512;-47
2021/08/23 11:05:09;;;;;;;4.43;1.75;;;;;;;23.56;47.43;102627.84;4989178;28;20033;-47
2021/08/23 11:07:39;;;;;;;3.83;1.70;;;;;;;23.59;47.57;102626.94;4983163;28;20034;-52
2021/08/23 11:10:09;;;;;;;4.40;1.80;;;;;;;24.07;47.01;102628.06;4984985;28;20083;-50
2021/08/23 11:12:55;;;;;;;6.00;1.80;;;;;;;24.01;47.18;102626.34;4979408;28;20034;-54
2021/08/23 11:15:24;;;;;;;4.15;1.60;;;;;;;23.52;46.27;102620.81;4987451;28;20036;-47
2021/08/23 11:18:12;;;;;;;4.38;1.55;;;;;;;23.72;46.56;102610.78;4980766;28;20144;-52
2021/08/23 11:20:48;;;;;;;3.50;1.80;;;;;;;23.77;46.70;102614.28;4984403;28;20077;-52